sensor_id;sensor_type;location;lat;lon;timestamp;P1;durP1;ratioP1;P2;durP2;ratioP2
2049;SDS011;8478;49.208;8.806;2022-12-29T00:02:13;4.03;;;3.47;;
2049;SDS011;8478;49.208;8.806;2022-12-29T00:04:39;3.50;;;3.30;;
2049;SDS011;8478;49.208;8.806;2022-12-29T00:07:05;4.10;;;3.10;;
2049;SDS011;8478;49.208;8.806;2022-12-29T00:09:31;3.37;;;3.17;;
2049;SDS011;8478;49.208;8.806;2022-12-29T00:11:58;4.40;;;3.80;;
2049;SDS011;8478;49.208;8.806;2022-12-29T00:14:24;3.57;;;3.27;;
2049;SDS011;8478;49.208;8.806;2022-12-29T00:17:10;3.50;;;3.20;;
2049;SDS011;8478;49.208;8.806;2022-12-29T00:19:36;3.70;;;3.40;;
2049;SDS011;8478;49.208;8.806;2022-12-29T00:22:20;3.60;;;3.30;;
2049;SDS011;8478;49.208;8.806;2022-12-29T00:25:07;3.30;;;3.10;;
2049;SDS011;8478;49.208;8.806;2022-12-29T00:27:52;5.93;;;3.10;;
2049;SDS011;8478;49.208;8.806;2022-12-29T00:30:36;3.40;;;3.10;;
2049;SDS011;8478;49.208;8.806;2022-12-29T00:33:21;2.70;;;2.50;;
2049;SDS011;8478;49.208;8.806;2022-12-29T00:39:06;3.73;;;3.33;;
2049;SDS011;8478;49.208;8.806;2022-12-29T00:41:54;3.50;;;3.20;;
2049;SDS011;8478;49.208;8.806;2022-12-29T00:44:38;2.50;;;2.30;;
2049;SDS011;8478;49.208;8.806;2022-12-29T00:47:03;3.00;;;2.80;;
2049;SDS011;8478;49.208;8.806;2022-12-29T00:49:29;3.60;;;3.10;;
2049;SDS011;8478;49.208;8.806;2022-12-29T00:52:06;5.33;;;3.10;;
2049;SDS011;8478;49.208;8.806;2022-12-29T00:54:34;2.93;;;2.73;;
2049;SDS011;8478;49.208;8.806;2022-12-29T00:57:02;3.20;;;3.00;;
2049;SDS011;8478;49.208;8.806;2022-12-29T00:59:29;2.90;;;2.70;;
2049;SDS011;8478;49.208;8.806;2022-12-29T01:01:54;2.93;;;2.70;;
2049;SDS011;8478;49.208;8.806;2022-12-29T01:04:22;3.07;;;2.87;;
2049;SDS011;8478;49.208;8.806;2022-12-29T01:06:48;2.70;;;2.50;;
2049;SDS011;8478;49.208;8.806;2022-12-29T01:09:15;2.70;;;2.50;;
2049;SDS011;8478;49.208;8.806;2022-12-29T01:12:00;4.23;;;2.80;;
2049;SDS011;8478;49.208;8.806;2022-12-29T01:14:26;2.90;;;2.70;;
2049;SDS011;8478;49.208;8.806;2022-12-29T01:16:53;3.70;;;2.70;;
2049;SDS011;8478;49.208;8.806;2022-12-29T01:19:20;2.57;;;2.37;;
2049;SDS011;8478;49.208;8.806;2022-12-29T01:21:46;3.30;;;2.50;;
2049;SDS011;8478;49.208;8.806;2022-12-29T01:24:13;3.20;;;3.00;;
2049;SDS011;8478;49.208;8.806;2022-12-29T01:26:40;2.90;;;2.70;;
2049;SDS011;8478;49.208;8.806;2022-12-29T01:29:05;2.97;;;2.77;;
2049;SDS011;8478;49.208;8.806;2022-12-29T01:31:31;2.90;;;2.70;;
2049;SDS011;8478;49.208;8.806;2022-12-29T01:33:57;2.60;;;2.40;;
2049;SDS011;8478;49.208;8.806;2022-12-29T01:36:23;2.77;;;2.57;;
2049;SDS011;8478;49.208;8.806;2022-12-29T01:38:50;3.03;;;2.67;;
2049;SDS011;8478;49.208;8.806;2022-12-29T01:41:15;3.30;;;3.00;;
2049;SDS011;8478;49.208;8.806;2022-12-29T01:43:46;2.53;;;2.33;;
2049;SDS011;8478;49.208;8.806;2022-12-29T01:46:19;3.03;;;2.70;;
2049;SDS011;8478;49.208;8.806;2022-12-29T01:48:47;2.87;;;2.67;;
2049;SDS011;8478;49.208;8.806;2022-12-29T01:51:15;2.33;;;2.20;;
2049;SDS011;8478;49.208;8.806;2022-12-29T01:53:41;2.73;;;2.53;;
2049;SDS011;8478;49.208;8.806;2022-12-29T01:56:10;3.63;;;2.87;;
2049;SDS011;8478;49.208;8.806;2022-12-29T01:58:39;3.00;;;2.80;;
2049;SDS011;8478;49.208;8.806;2022-12-29T02:01:08;3.20;;;2.90;;
2049;SDS011;8478;49.208;8.806;2022-12-29T02:03:34;3.30;;;2.37;;
2049;SDS011;8478;49.208;8.806;2022-12-29T02:08:29;2.60;;;2.40;;
2049;SDS011;8478;49.208;8.806;2022-12-29T02:10:55;2.73;;;2.53;;
2049;SDS011;8478;49.208;8.806;2022-12-29T02:13:25;2.70;;;2.50;;
2049;SDS011;8478;49.208;8.806;2022-12-29T02:30:44;3.13;;;2.87;;
2049;SDS011;8478;49.208;8.806;2022-12-29T02:33:49;2.70;;;2.50;;
2049;SDS011;8478;49.208;8.806;2022-12-29T02:36:32;2.43;;;2.23;;
2049;SDS011;8478;49.208;8.806;2022-12-29T02:47:16;3.60;;;3.00;;
2049;SDS011;8478;49.208;8.806;2022-12-29T02:50:06;3.33;;;2.90;;
2049;SDS011;8478;49.208;8.806;2022-12-29T02:52:43;3.97;;;2.80;;
2049;SDS011;8478;49.208;8.806;2022-12-29T02:55:19;2.83;;;2.57;;
2049;SDS011;8478;49.208;8.806;2022-12-29T02:57:45;2.80;;;2.60;;
2049;SDS011;8478;49.208;8.806;2022-12-29T03:00:12;3.13;;;2.93;;
2049;SDS011;8478;49.208;8.806;2022-12-29T03:10:25;3.20;;;2.90;;
2049;SDS011;8478;49.208;8.806;2022-12-29T03:16:13;2.97;;;2.70;;
2049;SDS011;8478;49.208;8.806;2022-12-29T03:19:14;3.00;;;2.60;;
2049;SDS011;8478;49.208;8.806;2022-12-29T03:21:50;2.70;;;2.50;;
2049;SDS011;8478;49.208;8.806;2022-12-29T03:24:40;3.70;;;2.60;;
2049;SDS011;8478;49.208;8.806;2022-12-29T03:27:09;5.23;;;2.40;;
2049;SDS011;8478;49.208;8.806;2022-12-29T03:29:42;3.73;;;2.20;;
2049;SDS011;8478;49.208;8.806;2022-12-29T03:32:17;2.90;;;2.70;;
2049;SDS011;8478;49.208;8.806;2022-12-29T03:34:46;2.60;;;2.43;;
2049;SDS011;8478;49.208;8.806;2022-12-29T03:37:14;2.80;;;2.57;;
2049;SDS011;8478;49.208;8.806;2022-12-29T03:39:43;3.50;;;2.70;;
2049;SDS011;8478;49.208;8.806;2022-12-29T03:42:11;2.73;;;2.53;;
2049;SDS011;8478;49.208;8.806;2022-12-29T03:44:44;2.70;;;2.50;;
2049;SDS011;8478;49.208;8.806;2022-12-29T03:47:11;3.30;;;3.00;;
2049;SDS011;8478;49.208;8.806;2022-12-29T03:49:38;3.17;;;2.97;;
2049;SDS011;8478;49.208;8.806;2022-12-29T03:52:04;2.87;;;2.67;;
2049;SDS011;8478;49.208;8.806;2022-12-29T03:54:30;3.00;;;2.70;;
2049;SDS011;8478;49.208;8.806;2022-12-29T03:56:56;2.50;;;2.30;;
2049;SDS011;8478;49.208;8.806;2022-12-29T03:59:22;2.60;;;2.40;;
2049;SDS011;8478;49.208;8.806;2022-12-29T04:01:48;2.30;;;2.20;;
2049;SDS011;8478;49.208;8.806;2022-12-29T04:04:14;2.50;;;2.30;;
2049;SDS011;8478;49.208;8.806;2022-12-29T04:06:39;3.33;;;2.60;;
2049;SDS011;8478;49.208;8.806;2022-12-29T04:09:05;2.97;;;2.67;;
2049;SDS011;8478;49.208;8.806;2022-12-29T04:11:31;2.50;;;2.30;;
2049;SDS011;8478;49.208;8.806;2022-12-29T04:13:57;2.77;;;2.43;;
2049;SDS011;8478;49.208;8.806;2022-12-29T04:16:23;2.20;;;2.10;;
2049;SDS011;8478;49.208;8.806;2022-12-29T04:18:48;2.90;;;2.57;;
2049;SDS011;8478;49.208;8.806;2022-12-29T04:21:14;2.60;;;2.40;;
2049;SDS011;8478;49.208;8.806;2022-12-29T04:23:40;2.70;;;2.50;;
2049;SDS011;8478;49.208;8.806;2022-12-29T04:26:06;3.00;;;2.70;;
2049;SDS011;8478;49.208;8.806;2022-12-29T04:28:33;2.90;;;2.20;;
2049;SDS011;8478;49.208;8.806;2022-12-29T04:31:00;3.93;;;2.03;;
2049;SDS011;8478;49.208;8.806;2022-12-29T04:33:25;2.90;;;2.20;;
2049;SDS011;8478;49.208;8.806;2022-12-29T04:35:51;2.10;;;2.00;;
2049;SDS011;8478;49.208;8.806;2022-12-29T04:38:19;2.47;;;2.20;;
2049;SDS011;8478;49.208;8.806;2022-12-29T04:40:45;2.23;;;2.10;;
2049;SDS011;8478;49.208;8.806;2022-12-29T04:43:12;3.90;;;2.10;;
2049;SDS011;8478;49.208;8.806;2022-12-29T04:45:38;2.53;;;2.07;;
2049;SDS011;8478;49.208;8.806;2022-12-29T04:48:13;2.33;;;2.13;;
2049;SDS011;8478;49.208;8.806;2022-12-29T04:50:40;2.17;;;2.03;;
2049;SDS011;8478;49.208;8.806;2022-12-29T04:53:06;3.50;;;2.40;;
2049;SDS011;8478;49.208;8.806;2022-12-29T04:55:32;2.70;;;2.20;;
2049;SDS011;8478;49.208;8.806;2022-12-29T04:57:58;2.67;;;2.47;;
2049;SDS011;8478;49.208;8.806;2022-12-29T05:00:24;2.33;;;2.13;;
2049;SDS011;8478;49.208;8.806;2022-12-29T05:02:49;3.20;;;2.30;;
2049;SDS011;8478;49.208;8.806;2022-12-29T05:05:15;2.50;;;2.30;;
2049;SDS011;8478;49.208;8.806;2022-12-29T05:07:41;2.13;;;1.93;;
2049;SDS011;8478;49.208;8.806;2022-12-29T05:10:07;2.47;;;2.30;;
2049;SDS011;8478;49.208;8.806;2022-12-29T05:12:34;2.57;;;2.37;;
2049;SDS011;8478;49.208;8.806;2022-12-29T05:15:01;2.57;;;2.37;;
2049;SDS011;8478;49.208;8.806;2022-12-29T05:17:30;2.77;;;2.57;;
2049;SDS011;8478;49.208;8.806;2022-12-29T05:19:56;2.70;;;2.30;;
2049;SDS011;8478;49.208;8.806;2022-12-29T05:22:21;3.20;;;2.90;;
2049;SDS011;8478;49.208;8.806;2022-12-29T05:24:47;2.53;;;2.33;;
2049;SDS011;8478;49.208;8.806;2022-12-29T05:27:13;2.47;;;2.27;;
2049;SDS011;8478;49.208;8.806;2022-12-29T05:29:39;2.27;;;2.07;;
2049;SDS011;8478;49.208;8.806;2022-12-29T05:32:05;2.00;;;1.90;;
2049;SDS011;8478;49.208;8.806;2022-12-29T05:34:30;2.60;;;2.40;;
2049;SDS011;8478;49.208;8.806;2022-12-29T05:36:56;3.13;;;2.80;;
2049;SDS011;8478;49.208;8.806;2022-12-29T05:39:22;2.53;;;2.30;;
2049;SDS011;8478;49.208;8.806;2022-12-29T05:41:48;2.47;;;2.20;;
2049;SDS011;8478;49.208;8.806;2022-12-29T05:44:14;3.10;;;2.13;;
2049;SDS011;8478;49.208;8.806;2022-12-29T05:46:39;3.00;;;1.97;;
2049;SDS011;8478;49.208;8.806;2022-12-29T05:49:05;3.00;;;2.70;;
2049;SDS011;8478;49.208;8.806;2022-12-29T05:51:31;2.53;;;2.30;;
2049;SDS011;8478;49.208;8.806;2022-12-29T05:53:57;2.80;;;2.50;;
2049;SDS011;8478;49.208;8.806;2022-12-29T05:56:22;2.67;;;2.40;;
2049;SDS011;8478;49.208;8.806;2022-12-29T05:58:48;2.37;;;2.17;;
2049;SDS011;8478;49.208;8.806;2022-12-29T06:01:14;2.50;;;2.30;;
2049;SDS011;8478;49.208;8.806;2022-12-29T06:03:39;2.53;;;2.33;;
2049;SDS011;8478;49.208;8.806;2022-12-29T06:06:05;2.33;;;2.13;;
2049;SDS011;8478;49.208;8.806;2022-12-29T06:08:32;2.70;;;2.50;;
2049;SDS011;8478;49.208;8.806;2022-12-29T06:10:57;2.60;;;2.40;;
2049;SDS011;8478;49.208;8.806;2022-12-29T06:13:23;2.73;;;2.53;;
2049;SDS011;8478;49.208;8.806;2022-12-29T06:15:49;2.53;;;2.30;;
2049;SDS011;8478;49.208;8.806;2022-12-29T06:18:15;2.20;;;2.10;;
2049;SDS011;8478;49.208;8.806;2022-12-29T06:20:41;2.70;;;2.50;;
2049;SDS011;8478;49.208;8.806;2022-12-29T06:23:07;2.70;;;2.10;;
2049;SDS011;8478;49.208;8.806;2022-12-29T06:25:33;2.87;;;2.40;;
2049;SDS011;8478;49.208;8.806;2022-12-29T06:28:00;2.47;;;2.30;;
2049;SDS011;8478;49.208;8.806;2022-12-29T06:30:27;2.60;;;2.30;;
2049;SDS011;8478;49.208;8.806;2022-12-29T06:32:53;3.10;;;2.80;;
2049;SDS011;8478;49.208;8.806;2022-12-29T06:35:19;2.67;;;2.27;;
2049;SDS011;8478;49.208;8.806;2022-12-29T06:37:46;2.70;;;2.50;;
2049;SDS011;8478;49.208;8.806;2022-12-29T06:40:12;2.80;;;2.60;;
2049;SDS011;8478;49.208;8.806;2022-12-29T06:42:37;2.50;;;2.30;;
2049;SDS011;8478;49.208;8.806;2022-12-29T06:45:03;3.10;;;2.73;;
2049;SDS011;8478;49.208;8.806;2022-12-29T06:47:29;2.30;;;2.20;;
2049;SDS011;8478;49.208;8.806;2022-12-29T06:49:55;2.77;;;2.57;;
2049;SDS011;8478;49.208;8.806;2022-12-29T06:52:20;2.53;;;2.33;;
2049;SDS011;8478;49.208;8.806;2022-12-29T06:54:48;2.60;;;2.40;;
2049;SDS011;8478;49.208;8.806;2022-12-29T06:57:14;2.53;;;2.10;;
2049;SDS011;8478;49.208;8.806;2022-12-29T06:59:40;2.83;;;2.27;;
2049;SDS011;8478;49.208;8.806;2022-12-29T07:02:06;3.03;;;2.73;;
2049;SDS011;8478;49.208;8.806;2022-12-29T07:04:31;2.50;;;2.30;;
2049;SDS011;8478;49.208;8.806;2022-12-29T07:06:57;2.73;;;2.53;;
2049;SDS011;8478;49.208;8.806;2022-12-29T07:09:23;2.23;;;2.13;;
2049;SDS011;8478;49.208;8.806;2022-12-29T07:11:48;2.20;;;2.00;;
2049;SDS011;8478;49.208;8.806;2022-12-29T07:14:14;2.73;;;2.00;;
2049;SDS011;8478;49.208;8.806;2022-12-29T07:16:40;3.43;;;2.37;;
2049;SDS011;8478;49.208;8.806;2022-12-29T07:19:05;2.60;;;2.40;;
2049;SDS011;8478;49.208;8.806;2022-12-29T07:21:31;3.03;;;2.43;;
2049;SDS011;8478;49.208;8.806;2022-12-29T07:23:57;2.70;;;2.50;;
2049;SDS011;8478;49.208;8.806;2022-12-29T07:26:22;2.90;;;2.60;;
2049;SDS011;8478;49.208;8.806;2022-12-29T07:28:48;2.70;;;2.50;;
2049;SDS011;8478;49.208;8.806;2022-12-29T07:31:14;2.57;;;2.37;;
2049;SDS011;8478;49.208;8.806;2022-12-29T07:33:42;2.60;;;2.40;;
2049;SDS011;8478;49.208;8.806;2022-12-29T07:36:11;2.70;;;2.50;;
2049;SDS011;8478;49.208;8.806;2022-12-29T07:38:37;2.33;;;2.13;;
2049;SDS011;8478;49.208;8.806;2022-12-29T07:41:03;4.50;;;2.63;;
2049;SDS011;8478;49.208;8.806;2022-12-29T07:43:29;2.60;;;2.30;;
2049;SDS011;8478;49.208;8.806;2022-12-29T07:45:54;2.80;;;2.60;;
2049;SDS011;8478;49.208;8.806;2022-12-29T07:48:20;2.37;;;2.17;;
2049;SDS011;8478;49.208;8.806;2022-12-29T07:50:46;3.17;;;2.37;;
2049;SDS011;8478;49.208;8.806;2022-12-29T07:53:12;2.70;;;2.50;;
2049;SDS011;8478;49.208;8.806;2022-12-29T07:55:38;5.50;;;2.40;;
2049;SDS011;8478;49.208;8.806;2022-12-29T07:58:03;3.10;;;2.57;;
2049;SDS011;8478;49.208;8.806;2022-12-29T08:00:29;3.03;;;2.70;;
2049;SDS011;8478;49.208;8.806;2022-12-29T08:02:55;2.73;;;2.50;;
2049;SDS011;8478;49.208;8.806;2022-12-29T08:05:20;4.13;;;2.63;;
2049;SDS011;8478;49.208;8.806;2022-12-29T08:07:47;3.30;;;3.00;;
2049;SDS011;8478;49.208;8.806;2022-12-29T08:10:13;3.83;;;3.53;;
2049;SDS011;8478;49.208;8.806;2022-12-29T08:12:39;3.10;;;2.90;;
2049;SDS011;8478;49.208;8.806;2022-12-29T08:15:06;2.97;;;2.70;;
2049;SDS011;8478;49.208;8.806;2022-12-29T08:17:33;3.13;;;2.83;;
2049;SDS011;8478;49.208;8.806;2022-12-29T08:19:58;3.17;;;2.93;;
2049;SDS011;8478;49.208;8.806;2022-12-29T08:22:24;2.80;;;2.53;;
2049;SDS011;8478;49.208;8.806;2022-12-29T08:24:50;2.87;;;2.60;;
2049;SDS011;8478;49.208;8.806;2022-12-29T08:27:16;3.20;;;2.90;;
2049;SDS011;8478;49.208;8.806;2022-12-29T08:29:43;3.20;;;3.00;;
2049;SDS011;8478;49.208;8.806;2022-12-29T08:32:09;2.80;;;2.60;;
2049;SDS011;8478;49.208;8.806;2022-12-29T08:34:35;3.43;;;3.13;;
2049;SDS011;8478;49.208;8.806;2022-12-29T08:37:01;3.40;;;3.10;;
2049;SDS011;8478;49.208;8.806;2022-12-29T08:39:27;3.93;;;3.40;;
2049;SDS011;8478;49.208;8.806;2022-12-29T08:41:53;3.60;;;3.30;;
2049;SDS011;8478;49.208;8.806;2022-12-29T08:44:19;4.63;;;2.90;;
2049;SDS011;8478;49.208;8.806;2022-12-29T08:46:46;3.07;;;2.87;;
2049;SDS011;8478;49.208;8.806;2022-12-29T08:49:12;4.00;;;2.70;;
2049;SDS011;8478;49.208;8.806;2022-12-29T08:51:38;3.93;;;3.23;;
2049;SDS011;8478;49.208;8.806;2022-12-29T08:54:03;3.33;;;3.13;;
2049;SDS011;8478;49.208;8.806;2022-12-29T08:56:29;3.20;;;2.90;;
2049;SDS011;8478;49.208;8.806;2022-12-29T08:58:55;3.73;;;2.60;;
2049;SDS011;8478;49.208;8.806;2022-12-29T09:01:21;3.10;;;2.80;;
2049;SDS011;8478;49.208;8.806;2022-12-29T09:03:47;3.27;;;3.00;;
2049;SDS011;8478;49.208;8.806;2022-12-29T09:06:13;3.63;;;3.33;;
2049;SDS011;8478;49.208;8.806;2022-12-29T09:08:41;3.07;;;2.80;;
2049;SDS011;8478;49.208;8.806;2022-12-29T09:11:12;3.73;;;3.40;;
2049;SDS011;8478;49.208;8.806;2022-12-29T09:13:43;3.30;;;3.00;;
2049;SDS011;8478;49.208;8.806;2022-12-29T09:16:09;3.30;;;3.00;;
2049;SDS011;8478;49.208;8.806;2022-12-29T09:18:35;3.40;;;3.20;;
2049;SDS011;8478;49.208;8.806;2022-12-29T09:21:02;3.80;;;3.10;;
2049;SDS011;8478;49.208;8.806;2022-12-29T09:23:28;4.97;;;3.73;;
2049;SDS011;8478;49.208;8.806;2022-12-29T09:25:54;3.47;;;3.17;;
2049;SDS011;8478;49.208;8.806;2022-12-29T09:28:20;3.40;;;3.03;;
2049;SDS011;8478;49.208;8.806;2022-12-29T09:30:47;3.67;;;3.13;;
2049;SDS011;8478;49.208;8.806;2022-12-29T09:33:13;4.27;;;3.53;;
2049;SDS011;8478;49.208;8.806;2022-12-29T09:35:45;3.30;;;3.00;;
2049;SDS011;8478;49.208;8.806;2022-12-29T09:38:19;3.17;;;2.97;;
2049;SDS011;8478;49.208;8.806;2022-12-29T09:40:45;3.23;;;3.00;;
2049;SDS011;8478;49.208;8.806;2022-12-29T09:43:37;6.23;;;4.10;;
2049;SDS011;8478;49.208;8.806;2022-12-29T09:46:26;3.00;;;2.80;;
2049;SDS011;8478;49.208;8.806;2022-12-29T09:51:46;3.27;;;2.80;;
2049;SDS011;8478;49.208;8.806;2022-12-29T09:56:41;2.93;;;2.73;;
2049;SDS011;8478;49.208;8.806;2022-12-29T09:59:13;3.37;;;2.80;;
2049;SDS011;8478;49.208;8.806;2022-12-29T10:01:52;3.87;;;3.57;;
2049;SDS011;8478;49.208;8.806;2022-12-29T10:04:25;3.13;;;2.93;;
2049;SDS011;8478;49.208;8.806;2022-12-29T10:10:19;3.43;;;2.73;;
2049;SDS011;8478;49.208;8.806;2022-12-29T10:15:56;3.97;;;2.97;;
2049;SDS011;8478;49.208;8.806;2022-12-29T10:21:34;4.00;;;3.40;;
2049;SDS011;8478;49.208;8.806;2022-12-29T10:24:27;3.00;;;2.80;;
2049;SDS011;8478;49.208;8.806;2022-12-29T10:26:55;3.40;;;3.10;;
2049;SDS011;8478;49.208;8.806;2022-12-29T10:29:24;4.40;;;3.03;;
2049;SDS011;8478;49.208;8.806;2022-12-29T10:34:31;4.07;;;3.10;;
2049;SDS011;8478;49.208;8.806;2022-12-29T10:39:45;3.37;;;3.17;;
2049;SDS011;8478;49.208;8.806;2022-12-29T10:42:20;3.40;;;3.00;;
2049;SDS011;8478;49.208;8.806;2022-12-29T10:45:13;2.87;;;2.67;;
2049;SDS011;8478;49.208;8.806;2022-12-29T10:47:45;3.87;;;2.73;;
2049;SDS011;8478;49.208;8.806;2022-12-29T10:50:21;3.50;;;3.17;;
2049;SDS011;8478;49.208;8.806;2022-12-29T10:52:48;3.03;;;2.83;;
2049;SDS011;8478;49.208;8.806;2022-12-29T10:58:02;3.37;;;3.17;;
2049;SDS011;8478;49.208;8.806;2022-12-29T11:00:32;2.60;;;2.40;;
2049;SDS011;8478;49.208;8.806;2022-12-29T11:03:06;2.83;;;2.63;;
2049;SDS011;8478;49.208;8.806;2022-12-29T11:08:28;3.00;;;2.80;;
2049;SDS011;8478;49.208;8.806;2022-12-29T11:11:02;4.80;;;2.47;;
2049;SDS011;8478;49.208;8.806;2022-12-29T11:13:31;4.77;;;2.90;;
2049;SDS011;8478;49.208;8.806;2022-12-29T11:15:58;2.83;;;2.63;;
2049;SDS011;8478;49.208;8.806;2022-12-29T11:20:53;2.90;;;2.43;;
2049;SDS011;8478;49.208;8.806;2022-12-29T11:23:29;3.97;;;2.73;;
2049;SDS011;8478;49.208;8.806;2022-12-29T11:26:17;3.00;;;2.73;;
2049;SDS011;8478;49.208;8.806;2022-12-29T11:28:47;5.50;;;2.87;;
2049;SDS011;8478;49.208;8.806;2022-12-29T11:31:41;2.83;;;2.63;;
2049;SDS011;8478;49.208;8.806;2022-12-29T11:34:07;2.70;;;2.50;;
2049;SDS011;8478;49.208;8.806;2022-12-29T11:36:33;4.00;;;2.50;;
2049;SDS011;8478;49.208;8.806;2022-12-29T11:39:00;2.93;;;2.73;;
2049;SDS011;8478;49.208;8.806;2022-12-29T11:41:30;2.90;;;2.70;;
2049;SDS011;8478;49.208;8.806;2022-12-29T11:43:58;3.33;;;3.03;;
2049;SDS011;8478;49.208;8.806;2022-12-29T11:48:54;3.07;;;2.53;;
2049;SDS011;8478;49.208;8.806;2022-12-29T11:51:45;3.37;;;3.07;;
2049;SDS011;8478;49.208;8.806;2022-12-29T11:54:14;3.03;;;2.83;;
2049;SDS011;8478;49.208;8.806;2022-12-29T11:56:50;3.73;;;3.33;;
2049;SDS011;8478;49.208;8.806;2022-12-29T12:02:48;3.13;;;2.73;;
2049;SDS011;8478;49.208;8.806;2022-12-29T12:10:04;3.30;;;2.97;;
2049;SDS011;8478;49.208;8.806;2022-12-29T12:12:34;3.87;;;3.40;;
2049;SDS011;8478;49.208;8.806;2022-12-29T12:15:08;2.97;;;2.67;;
2049;SDS011;8478;49.208;8.806;2022-12-29T12:17:46;3.30;;;3.00;;
2049;SDS011;8478;49.208;8.806;2022-12-29T12:28:52;3.50;;;2.80;;
2049;SDS011;8478;49.208;8.806;2022-12-29T12:31:27;3.37;;;3.03;;
2049;SDS011;8478;49.208;8.806;2022-12-29T12:34:02;3.30;;;3.10;;
2049;SDS011;8478;49.208;8.806;2022-12-29T12:39:25;3.77;;;3.47;;
2049;SDS011;8478;49.208;8.806;2022-12-29T12:53:26;4.33;;;3.30;;
2049;SDS011;8478;49.208;8.806;2022-12-29T13:12:46;3.97;;;3.57;;
2049;SDS011;8478;49.208;8.806;2022-12-29T13:26:46;3.80;;;3.10;;
2049;SDS011;8478;49.208;8.806;2022-12-29T13:32:18;3.20;;;2.90;;
2049;SDS011;8478;49.208;8.806;2022-12-29T13:35:06;4.17;;;3.00;;
2049;SDS011;8478;49.208;8.806;2022-12-29T13:37:47;2.97;;;2.67;;
2049;SDS011;8478;49.208;8.806;2022-12-29T13:40:19;3.30;;;2.70;;
2049;SDS011;8478;49.208;8.806;2022-12-29T13:42:49;2.60;;;2.40;;
2049;SDS011;8478;49.208;8.806;2022-12-29T13:45:20;3.33;;;2.20;;
2049;SDS011;8478;49.208;8.806;2022-12-29T13:47:51;2.30;;;2.10;;
2049;SDS011;8478;49.208;8.806;2022-12-29T13:50:22;3.80;;;2.67;;
2049;SDS011;8478;49.208;8.806;2022-12-29T13:55:58;2.20;;;2.10;;
2049;SDS011;8478;49.208;8.806;2022-12-29T13:58:50;2.63;;;2.40;;
2049;SDS011;8478;49.208;8.806;2022-12-29T14:02:01;2.70;;;2.50;;
2049;SDS011;8478;49.208;8.806;2022-12-29T14:04:29;2.50;;;2.30;;
2049;SDS011;8478;49.208;8.806;2022-12-29T14:07:05;2.20;;;2.10;;
2049;SDS011;8478;49.208;8.806;2022-12-29T14:17:37;2.40;;;2.30;;
2049;SDS011;8478;49.208;8.806;2022-12-29T14:20:05;2.90;;;2.33;;
2049;SDS011;8478;49.208;8.806;2022-12-29T14:22:55;2.40;;;2.20;;
2049;SDS011;8478;49.208;8.806;2022-12-29T14:28:23;2.67;;;2.47;;
2049;SDS011;8478;49.208;8.806;2022-12-29T14:30:52;2.30;;;2.20;;
2049;SDS011;8478;49.208;8.806;2022-12-29T14:33:20;2.73;;;2.53;;
2049;SDS011;8478;49.208;8.806;2022-12-29T14:35:47;2.70;;;2.50;;
2049;SDS011;8478;49.208;8.806;2022-12-29T14:38:26;3.10;;;2.50;;
2049;SDS011;8478;49.208;8.806;2022-12-29T14:41:15;2.80;;;2.60;;
2049;SDS011;8478;49.208;8.806;2022-12-29T14:43:51;2.40;;;2.20;;
2049;SDS011;8478;49.208;8.806;2022-12-29T14:46:23;2.10;;;2.00;;
2049;SDS011;8478;49.208;8.806;2022-12-29T14:48:53;2.30;;;2.20;;
2049;SDS011;8478;49.208;8.806;2022-12-29T14:51:28;2.50;;;2.10;;
2049;SDS011;8478;49.208;8.806;2022-12-29T14:53:56;2.73;;;2.27;;
2049;SDS011;8478;49.208;8.806;2022-12-29T14:56:25;3.70;;;2.27;;
2049;SDS011;8478;49.208;8.806;2022-12-29T15:01:26;2.60;;;2.40;;
2049;SDS011;8478;49.208;8.806;2022-12-29T15:04:15;2.27;;;2.17;;
2049;SDS011;8478;49.208;8.806;2022-12-29T15:06:44;2.10;;;1.90;;
2049;SDS011;8478;49.208;8.806;2022-12-29T15:09:24;3.00;;;2.00;;
2049;SDS011;8478;49.208;8.806;2022-12-29T15:11:57;2.83;;;2.30;;
2049;SDS011;8478;49.208;8.806;2022-12-29T15:14:39;1.90;;;1.80;;
2049;SDS011;8478;49.208;8.806;2022-12-29T15:17:32;2.10;;;1.90;;
2049;SDS011;8478;49.208;8.806;2022-12-29T15:20:44;1.83;;;1.73;;
2049;SDS011;8478;49.208;8.806;2022-12-29T15:22:57;1.90;;;1.80;;
2049;SDS011;8478;49.208;8.806;2022-12-29T15:25:28;1.97;;;1.87;;
2049;SDS011;8478;49.208;8.806;2022-12-29T15:27:57;1.90;;;1.80;;
2049;SDS011;8478;49.208;8.806;2022-12-29T15:30:29;2.20;;;2.10;;
2049;SDS011;8478;49.208;8.806;2022-12-29T15:32:55;1.80;;;1.70;;
2049;SDS011;8478;49.208;8.806;2022-12-29T15:35:23;2.33;;;2.13;;
2049;SDS011;8478;49.208;8.806;2022-12-29T15:37:59;2.70;;;2.50;;
2049;SDS011;8478;49.208;8.806;2022-12-29T15:40:31;3.33;;;3.13;;
2049;SDS011;8478;49.208;8.806;2022-12-29T15:45:42;4.30;;;3.10;;
2049;SDS011;8478;49.208;8.806;2022-12-29T15:48:13;4.70;;;2.70;;
2049;SDS011;8478;49.208;8.806;2022-12-29T15:50:43;2.50;;;2.30;;
2049;SDS011;8478;49.208;8.806;2022-12-29T15:53:11;3.30;;;2.60;;
2049;SDS011;8478;49.208;8.806;2022-12-29T15:55:42;2.90;;;2.20;;
2049;SDS011;8478;49.208;8.806;2022-12-29T15:58:19;2.83;;;2.63;;
2049;SDS011;8478;49.208;8.806;2022-12-29T16:00:53;2.50;;;2.30;;
2049;SDS011;8478;49.208;8.806;2022-12-29T16:03:22;3.30;;;2.10;;
2049;SDS011;8478;49.208;8.806;2022-12-29T16:05:51;2.63;;;2.40;;
2049;SDS011;8478;49.208;8.806;2022-12-29T16:08:34;2.97;;;2.70;;
2049;SDS011;8478;49.208;8.806;2022-12-29T16:11:24;3.03;;;2.70;;
2049;SDS011;8478;49.208;8.806;2022-12-29T16:13:56;3.00;;;2.80;;
2049;SDS011;8478;49.208;8.806;2022-12-29T16:16:29;3.77;;;2.97;;
2049;SDS011;8478;49.208;8.806;2022-12-29T16:19:02;4.93;;;2.40;;
2049;SDS011;8478;49.208;8.806;2022-12-29T16:21:34;3.30;;;3.00;;
2049;SDS011;8478;49.208;8.806;2022-12-29T16:24:02;2.40;;;2.20;;
2049;SDS011;8478;49.208;8.806;2022-12-29T16:26:36;2.90;;;2.70;;
2049;SDS011;8478;49.208;8.806;2022-12-29T16:29:04;3.77;;;2.50;;
2049;SDS011;8478;49.208;8.806;2022-12-29T16:34:12;2.67;;;2.47;;
2049;SDS011;8478;49.208;8.806;2022-12-29T16:36:53;2.27;;;2.13;;
2049;SDS011;8478;49.208;8.806;2022-12-29T16:45:09;3.30;;;2.80;;
2049;SDS011;8478;49.208;8.806;2022-12-29T16:50:17;2.90;;;2.70;;
2049;SDS011;8478;49.208;8.806;2022-12-29T16:52:53;3.30;;;3.00;;
2049;SDS011;8478;49.208;8.806;2022-12-29T16:55:18;3.10;;;2.80;;
2049;SDS011;8478;49.208;8.806;2022-12-29T16:57:45;3.93;;;3.27;;
2049;SDS011;8478;49.208;8.806;2022-12-29T17:00:18;2.90;;;2.70;;
2049;SDS011;8478;49.208;8.806;2022-12-29T17:02:45;3.30;;;3.07;;
2049;SDS011;8478;49.208;8.806;2022-12-29T17:05:15;2.70;;;2.57;;
2049;SDS011;8478;49.208;8.806;2022-12-29T17:07:42;3.13;;;2.60;;
2049;SDS011;8478;49.208;8.806;2022-12-29T17:10:09;2.93;;;2.70;;
2049;SDS011;8478;49.208;8.806;2022-12-29T17:12:35;3.77;;;3.20;;
2049;SDS011;8478;49.208;8.806;2022-12-29T17:15:05;3.87;;;3.03;;
2049;SDS011;8478;49.208;8.806;2022-12-29T17:17:44;4.63;;;4.33;;
2049;SDS011;8478;49.208;8.806;2022-12-29T17:20:15;4.03;;;3.70;;
2049;SDS011;8478;49.208;8.806;2022-12-29T17:22:49;4.20;;;3.73;;
2049;SDS011;8478;49.208;8.806;2022-12-29T17:25:19;5.60;;;4.60;;
2049;SDS011;8478;49.208;8.806;2022-12-29T17:30:27;5.10;;;4.60;;
2049;SDS011;8478;49.208;8.806;2022-12-29T17:33:06;5.17;;;4.77;;
2049;SDS011;8478;49.208;8.806;2022-12-29T17:35:35;6.00;;;5.40;;
2049;SDS011;8478;49.208;8.806;2022-12-29T17:38:01;6.60;;;5.90;;
2049;SDS011;8478;49.208;8.806;2022-12-29T17:40:27;6.23;;;5.77;;
2049;SDS011;8478;49.208;8.806;2022-12-29T17:42:56;6.87;;;6.27;;
2049;SDS011;8478;49.208;8.806;2022-12-29T17:45:24;6.97;;;5.20;;
2049;SDS011;8478;49.208;8.806;2022-12-29T17:47:51;9.67;;;6.67;;
2049;SDS011;8478;49.208;8.806;2022-12-29T17:50:18;9.67;;;6.83;;
2049;SDS011;8478;49.208;8.806;2022-12-29T17:52:52;8.37;;;6.77;;
2049;SDS011;8478;49.208;8.806;2022-12-29T17:55:23;6.33;;;5.60;;
2049;SDS011;8478;49.208;8.806;2022-12-29T17:57:49;6.77;;;5.33;;
2049;SDS011;8478;49.208;8.806;2022-12-29T18:02:42;5.90;;;5.17;;
2049;SDS011;8478;49.208;8.806;2022-12-29T18:05:12;5.30;;;4.80;;
2049;SDS011;8478;49.208;8.806;2022-12-29T18:07:44;5.40;;;4.90;;
2049;SDS011;8478;49.208;8.806;2022-12-29T18:10:10;5.20;;;4.70;;
2049;SDS011;8478;49.208;8.806;2022-12-29T18:12:39;4.00;;;3.70;;
2049;SDS011;8478;49.208;8.806;2022-12-29T18:15:15;4.97;;;4.47;;
2049;SDS011;8478;49.208;8.806;2022-12-29T18:17:42;6.23;;;4.30;;
2049;SDS011;8478;49.208;8.806;2022-12-29T18:20:07;3.73;;;3.40;;
2049;SDS011;8478;49.208;8.806;2022-12-29T18:22:33;3.57;;;3.23;;